Time;durP1;ratioP1;P1;durP2;ratioP2;P2;SDS_P1;SDS_P2;PMS_P1;PMS_P2;Temp;Humidity;BMP_temperature;BMP_pressure;BME280_temperature;BME280_humidity;BME280_pressure;Samples;Min_cycle;Max_cycle;Signal;HPM_P1;HPM_P2
2023/05/07 00:00:27;;;;;;;9.60;6.80;;;;;;;;;;5035656;28;20299;-66
2023/05/07 00:02:53;;;;;;;8.80;7.03;;;;;;;;;;5053951;28;20376;-66
2023/05/07 00:05:19;;;;;;;10.00;6.67;;;;;;;;;;5053334;28;20186;-66
2023/05/07 00:07:45;;;;;;;10.33;7.20;;;;;;;;;;5053274;28;20574;-66
2023/05/07 00:10:12;;;;;;;8.80;7.17;;;;;;;;;;5035511;28;20285;-68
2023/05/07 00:12:38;;;;;;;9.83;7.17;;;;;;;;;;5053292;28;20246;-67
2023/05/07 00:15:04;;;;;;;7.73;6.93;;;;;;;;;;5053236;28;20201;-66
2023/05/07 00:17:30;;;;;;;9.13;7.70;;;;;;;;;;5053309;28;20228;-66
2023/05/07 00:19:56;;;;;;;10.27;7.77;;;;;;;;;;5053485;28;20174;-66
2023/05/07 00:22:22;;;;;;;8.30;7.43;;;;;;;;;;5053241;28;20571;-66
2023/05/07 00:24:48;;;;;;;9.00;7.67;;;;;;;;;;5054335;28;20578;-66
2023/05/07 00:27:14;;;;;;;11.70;8.00;;;;;;;;;;5054182;28;20178;-66
2023/05/07 00:29:40;;;;;;;9.43;8.30;;;;;;;;;;5053292;28;20182;-66
2023/05/07 00:32:06;;;;;;;10.27;8.57;;;;;;;;;;5053690;28;20691;-66
2023/05/07 00:34:32;;;;;;;9.60;8.20;;;;;;;;;;5053737;28;20548;-65
2023/05/07 00:36:58;;;;;;;9.53;8.47;;;;;;;;;;5052996;28;20209;-65
2023/05/07 00:39:24;;;;;;;11.87;8.87;;;;;;;;;;5053369;28;20216;-66
2023/05/07 00:41:51;;;;;;;11.03;8.90;;;;;;;;;;5052884;28;20264;-67
2023/05/07 00:44:18;;;;;;;10.43;8.83;;;;;;;;;;5052905;28;20174;-66
2023/05/07 00:46:44;;;;;;;9.97;9.07;;;;;;;;;;5053480;28;20174;-65
2023/05/07 00:49:10;;;;;;;13.10;9.27;;;;;;;;;;5053021;28;20178;-65
2023/05/07 00:51:36;;;;;;;11.77;9.10;;;;;;;;;;5035068;28;20567;-65
2023/05/07 00:54:03;;;;;;;10.47;9.47;;;;;;;;;;5038955;28;20182;-66
2023/05/07 00:56:29;;;;;;;11.97;9.83;;;;;;;;;;5057025;28;20202;-66
2023/05/07 00:58:55;;;;;;;11.17;10.00;;;;;;;;;;5038858;28;20174;-66
2023/05/07 01:01:21;;;;;;;11.53;9.70;;;;;;;;;;5038732;28;20194;-66
2023/05/07 01:03:47;;;;;;;12.60;10.30;;;;;;;;;;5057175;28;20605;-66
2023/05/07 01:06:16;;;;;;;11.53;10.00;;;;;;;;;;5056639;28;20225;-65
2023/05/07 01:08:42;;;;;;;14.90;10.10;;;;;;;;;;5056569;28;20175;-65
2023/05/07 01:11:08;;;;;;;15.17;10.57;;;;;;;;;;5038433;28;20210;-65
2023/05/07 01:13:35;;;;;;;14.50;10.50;;;;;;;;;;5056569;28;20228;-66
2023/05/07 01:16:01;;;;;;;10.67;9.60;;;;;;;;;;5056336;28;20217;-65
2023/05/07 01:18:29;;;;;;;14.67;9.73;;;;;;;;;;5056997;28;20178;-66
2023/05/07 01:20:56;;;;;;;11.47;10.27;;;;;;;;;;5056082;28;20197;-66
2023/05/07 01:23:22;;;;;;;12.87;11.43;;;;;;;;;;5056360;28;20214;-66
2023/05/07 01:25:55;;;;;;;15.03;11.00;;;;;;;;;;5056463;28;20183;-66
2023/05/07 01:28:21;;;;;;;13.53;12.07;;;;;;;;;;5056543;28;20579;-66
2023/05/07 01:30:50;;;;;;;14.47;12.27;;;;;;;;;;5056397;28;20221;-66
2023/05/07 01:33:18;;;;;;;13.77;12.37;;;;;;;;;;5056580;28;20174;-65
2023/05/07 01:35:46;;;;;;;15.43;12.70;;;;;;;;;;5056193;28;20248;-66
2023/05/07 01:38:12;;;;;;;13.87;12.00;;;;;;;;;;5056200;28;20214;-65
2023/05/07 01:40:38;;;;;;;14.53;12.97;;;;;;;;;;5056595;28;20210;-65
2023/05/07 01:43:05;;;;;;;14.60;12.67;;;;;;;;;;5056265;28;20249;-66
2023/05/07 01:45:32;;;;;;;15.20;13.57;;;;;;;;;;5056440;28;20182;-65
2023/05/07 01:47:59;;;;;;;15.23;13.83;;;;;;;;;;5038553;28;20197;-66
2023/05/07 01:50:26;;;;;;;17.23;14.83;;;;;;;;;;5056332;28;20195;-65
2023/05/07 01:52:52;;;;;;;17.00;14.60;;;;;;;;;;5038276;28;20193;-66
2023/05/07 01:55:18;;;;;;;16.70;14.53;;;;;;;;;;5055718;28;20555;-65
2023/05/07 01:57:44;;;;;;;16.03;14.33;;;;;;;;;;5038136;28;20179;-67
2023/05/07 02:00:10;;;;;;;17.00;15.20;;;;;;;;;;5056012;28;20194;-64
2023/05/07 02:02:37;;;;;;;16.90;15.23;;;;;;;;;;5055933;28;20773;-64
2023/05/07 02:05:04;;;;;;;16.23;14.37;;;;;;;;;;5037700;28;20184;-64
2023/05/07 02:07:29;;;;;;;15.87;14.33;;;;;;;;;;5055519;28;20671;-65
2023/05/07 02:09:55;;;;;;;16.57;14.47;;;;;;;;;;5055770;28;20175;-65
2023/05/07 02:12:22;;;;;;;16.93;15.07;;;;;;;;;;5055554;28;20178;-64
2023/05/07 02:14:48;;;;;;;16.23;14.63;;;;;;;;;;5037510;28;20186;-65
2023/05/07 02:17:14;;;;;;;15.97;14.47;;;;;;;;;;5055455;28;20336;-65
2023/05/07 02:19:40;;;;;;;20.70;15.40;;;;;;;;;;5055806;28;20198;-65
2023/05/07 02:22:06;;;;;;;16.17;14.57;;;;;;;;;;5055160;28;20604;-65
2023/05/07 02:24:32;;;;;;;18.00;14.80;;;;;;;;;;5055197;28;20656;-65
2023/05/07 02:26:58;;;;;;;16.93;15.17;;;;;;;;;;5055075;28;20183;-64
2023/05/07 02:29:24;;;;;;;15.93;14.37;;;;;;;;;;5055115;28;20615;-65
2023/05/07 02:31:50;;;;;;;17.33;14.70;;;;;;;;;;5055182;28;20198;-64
2023/05/07 02:34:17;;;;;;;15.73;14.00;;;;;;;;;;5055478;28;20175;-64
2023/05/07 02:36:43;;;;;;;16.63;13.50;;;;;;;;;;5055792;28;20234;-65
2023/05/07 02:39:09;;;;;;;17.87;14.47;;;;;;;;;;5055162;28;20202;-65
2023/05/07 02:41:35;;;;;;;16.30;14.70;;;;;;;;;;5054791;28;20217;-64
2023/05/07 02:44:01;;;;;;;20.90;14.43;;;;;;;;;;5055169;28;20187;-65
2023/05/07 02:46:26;;;;;;;16.50;14.80;;;;;;;;;;5055096;28;20183;-67
2023/05/07 02:48:52;;;;;;;15.33;13.80;;;;;;;;;;5055028;28;20645;-64
2023/05/07 02:51:20;;;;;;;16.73;14.57;;;;;;;;;;5036871;28;20206;-64
2023/05/07 02:53:46;;;;;;;15.57;14.03;;;;;;;;;;5036646;28;20225;-65
2023/05/07 02:56:12;;;;;;;15.90;14.33;;;;;;;;;;5054463;28;20236;-64
2023/05/07 02:58:42;;;;;;;16.77;14.77;;;;;;;;;;5054723;28;20175;-64
2023/05/07 03:01:08;;;;;;;18.73;15.33;;;;;;;;;;5036756;28;20628;-65
2023/05/07 03:03:34;;;;;;;19.37;16.47;;;;;;;;;;5054716;28;20170;-65
2023/05/07 03:06:00;;;;;;;17.97;15.77;;;;;;;;;;5054669;28;20261;-65
2023/05/07 03:08:26;;;;;;;17.30;15.53;;;;;;;;;;5055048;28;20179;-65
2023/05/07 03:10:52;;;;;;;18.00;16.07;;;;;;;;;;5054501;28;20229;-65
2023/05/07 03:13:19;;;;;;;18.47;16.63;;;;;;;;;;5054187;28;20232;-65
2023/05/07 03:15:45;;;;;;;18.00;16.20;;;;;;;;;;5035769;28;20203;-64
2023/05/07 03:18:11;;;;;;;18.63;16.83;;;;;;;;;;5054375;28;20170;-64
2023/05/07 03:20:37;;;;;;;22.60;16.83;;;;;;;;;;5036046;28;20285;-64
2023/05/07 03:23:03;;;;;;;18.23;16.43;;;;;;;;;;5054124;28;20599;-64
2023/05/07 03:25:32;;;;;;;19.60;17.37;;;;;;;;;;5054008;28;20201;-65
2023/05/07 03:27:58;;;;;;;19.70;17.60;;;;;;;;;;5054053;28;20174;-65
2023/05/07 03:30:24;;;;;;;19.50;17.37;;;;;;;;;;5036130;28;20243;-64
2023/05/07 03:32:50;;;;;;;21.70;17.27;;;;;;;;;;5054016;28;20552;-64
2023/05/07 03:35:16;;;;;;;19.30;17.37;;;;;;;;;;5053713;28;20552;-65
2023/05/07 03:37:42;;;;;;;20.20;17.97;;;;;;;;;;5035841;28;20269;-64
2023/05/07 03:40:10;;;;;;;19.43;17.43;;;;;;;;;;5053762;28;20210;-64
2023/05/07 03:42:36;;;;;;;21.50;19.30;;;;;;;;;;5053689;28;20150;-64
2023/05/07 03:45:02;;;;;;;20.47;18.37;;;;;;;;;;5053608;28;20209;-64
2023/05/07 03:47:28;;;;;;;21.40;19.20;;;;;;;;;;5053781;28;20203;-64
2023/05/07 03:49:54;;;;;;;21.63;19.33;;;;;;;;;;5053533;28;20170;-64
2023/05/07 03:52:24;;;;;;;21.20;19.00;;;;;;;;;;5053829;28;20171;-64
2023/05/07 03:54:50;;;;;;;21.80;19.60;;;;;;;;;;5053582;28;20166;-65
2023/05/07 03:57:16;;;;;;;21.57;19.57;;;;;;;;;;5053579;28;20206;-64
2023/05/07 03:59:42;;;;;;;23.10;19.73;;;;;;;;;;5053618;28;20189;-66
2023/05/07 04:02:08;;;;;;;21.47;19.27;;;;;;;;;;5035626;28;20221;-64
2023/05/07 04:04:34;;;;;;;22.13;18.90;;;;;;;;;;5053900;28;20183;-64
2023/05/07 04:07:00;;;;;;;20.60;18.43;;;;;;;;;;5036006;28;20182;-64
2023/05/07 04:09:26;;;;;;;21.70;18.83;;;;;;;;;;5035850;28;20335;-64
2023/05/07 04:11:52;;;;;;;21.20;19.00;;;;;;;;;;5053159;28;20194;-65
2023/05/07 04:14:18;;;;;;;22.60;18.30;;;;;;;;;;5035332;28;20570;-65
2023/05/07 04:16:44;;;;;;;22.57;18.47;;;;;;;;;;5053181;28;20208;-66
2023/05/07 04:19:10;;;;;;;20.87;18.63;;;;;;;;;;5053308;28;20174;-64
2023/05/07 04:21:36;;;;;;;21.73;19.30;;;;;;;;;;5035190;28;20198;-64
2023/05/07 04:24:03;;;;;;;22.10;19.23;;;;;;;;;;5053418;28;20174;-64
2023/05/07 04:26:30;;;;;;;22.33;19.13;;;;;;;;;;5053250;28;20204;-64
2023/05/07 04:28:57;;;;;;;21.57;19.47;;;;;;;;;;5057192;28;20282;-65
2023/05/07 04:31:23;;;;;;;25.20;20.80;;;;;;;;;;5057344;28;20198;-64
2023/05/07 04:33:50;;;;;;;22.73;20.53;;;;;;;;;;5057535;28;20198;-65
2023/05/07 04:36:16;;;;;;;22.23;19.97;;;;;;;;;;5057203;28;20284;-64
2023/05/07 04:38:42;;;;;;;23.77;21.27;;;;;;;;;;5057681;28;20257;-64
2023/05/07 04:41:09;;;;;;;23.63;21.13;;;;;;;;;;5057190;28;20711;-65
2023/05/07 04:43:35;;;;;;;24.80;22.07;;;;;;;;;;5039369;28;20178;-65
2023/05/07 04:46:01;;;;;;;24.00;21.50;;;;;;;;;;5040586;28;20247;-67
2023/05/07 04:48:28;;;;;;;23.13;20.77;;;;;;;;;;5040919;28;20194;-65
2023/05/07 04:50:54;;;;;;;24.30;21.87;;;;;;;;;;5040286;28;20680;-65
2023/05/07 04:53:21;;;;;;;24.33;21.83;;;;;;;;;;5039902;28;20183;-65
2023/05/07 04:55:47;;;;;;;24.60;22.00;;;;;;;;;;5057401;28;20216;-65
2023/05/07 04:58:13;;;;;;;26.00;23.27;;;;;;;;;;5056939;28;20257;-66
2023/05/07 05:00:39;;;;;;;26.60;23.93;;;;;;;;;;5056695;28;20270;-65
2023/05/07 05:03:07;;;;;;;29.87;23.63;;;;;;;;;;5038980;28;20185;-65
2023/05/07 05:05:33;;;;;;;26.47;23.13;;;;;;;;;;5056864;28;20206;-65
2023/05/07 05:07:59;;;;;;;25.07;22.53;;;;;;;;;;5057011;28;20556;-66
2023/05/07 05:10:25;;;;;;;27.47;24.47;;;;;;;;;;5056668;28;20202;-65
2023/05/07 05:12:51;;;;;;;29.83;23.60;;;;;;;;;;5056994;28;20183;-65
2023/05/07 05:15:17;;;;;;;27.33;24.53;;;;;;;;;;5056436;28;20261;-65
2023/05/07 05:17:43;;;;;;;28.67;25.77;;;;;;;;;;5056401;28;20615;-63
2023/05/07 05:20:10;;;;;;;27.47;24.57;;;;;;;;;;5038465;28;20198;-65
2023/05/07 05:22:36;;;;;;;27.93;25.13;;;;;;;;;;5056201;28;20192;-65
2023/05/07 05:25:02;;;;;;;26.67;24.07;;;;;;;;;;5038395;28;20175;-65
2023/05/07 05:27:29;;;;;;;26.57;23.80;;;;;;;;;;5038684;28;20188;-66
2023/05/07 05:29:55;;;;;;;27.43;23.20;;;;;;;;;;5039494;28;20186;-65
2023/05/07 05:32:21;;;;;;;24.97;22.47;;;;;;;;;;5056516;28;20182;-65
2023/05/07 05:34:50;;;;;;;26.60;23.63;;;;;;;;;;5038697;28;20182;-66
2023/05/07 05:37:16;;;;;;;27.87;22.83;;;;;;;;;;5038531;28;20297;-66
2023/05/07 05:39:42;;;;;;;24.83;22.17;;;;;;;;;;5037880;28;20214;-66
2023/05/07 05:42:11;;;;;;;24.37;21.87;;;;;;;;;;5056026;28;20218;-66
2023/05/07 05:44:37;;;;;;;24.17;21.67;;;;;;;;;;5038286;28;20182;-66
2023/05/07 05:47:03;;;;;;;23.97;21.57;;;;;;;;;;5056306;28;20267;-66
2023/05/07 05:49:29;;;;;;;23.37;20.97;;;;;;;;;;5056058;28;20186;-66
2023/05/07 05:51:55;;;;;;;22.80;20.47;;;;;;;;;;5056104;28;20198;-66
2023/05/07 05:54:22;;;;;;;21.13;18.87;;;;;;;;;;5057053;28;20189;-67
2023/05/07 05:56:48;;;;;;;20.60;18.40;;;;;;;;;;5037878;28;20562;-66
2023/05/07 05:59:14;;;;;;;20.90;18.80;;;;;;;;;;5056012;28;20645;-67
2023/05/07 06:01:40;;;;;;;20.93;18.77;;;;;;;;;;5056650;28;20315;-67
2023/05/07 06:04:05;;;;;;;19.00;17.00;;;;;;;;;;5038171;28;20529;-65
2023/05/07 06:06:32;;;;;;;19.17;17.37;;;;;;;;;;5056720;28;20190;-67
2023/05/07 06:08:58;;;;;;;18.67;15.27;;;;;;;;;;5059037;28;20649;-66
2023/05/07 06:11:24;;;;;;;19.03;17.13;;;;;;;;;;5057277;28;20198;-64
2023/05/07 06:13:50;;;;;;;19.30;17.30;;;;;;;;;;5056875;28;20660;-64
2023/05/07 06:16:16;;;;;;;16.73;15.23;;;;;;;;;;5056160;28;20205;-64
2023/05/07 06:18:42;;;;;;;18.03;16.17;;;;;;;;;;5056720;28;20524;-66
2023/05/07 06:21:08;;;;;;;17.40;15.80;;;;;;;;;;5056924;28;20233;-66
2023/05/07 06:23:35;;;;;;;17.70;15.50;;;;;;;;;;5056226;28;20174;-66
2023/05/07 06:26:04;;;;;;;17.30;15.50;;;;;;;;;;5037461;28;20209;-66
2023/05/07 06:28:35;;;;;;;16.30;14.60;;;;;;;;;;5055560;28;20644;-65
2023/05/07 06:31:13;;;;;;;17.57;14.97;;;;;;;;;;5055493;28;20209;-66
2023/05/07 06:33:39;;;;;;;14.33;13.03;;;;;;;;;;5037563;28;20205;-66
2023/05/07 06:36:06;;;;;;;14.77;13.37;;;;;;;;;;5055599;28;20288;-66
2023/05/07 06:38:32;;;;;;;14.50;12.97;;;;;;;;;;5037768;28;20316;-65
2023/05/07 06:40:57;;;;;;;14.00;12.60;;;;;;;;;;5037004;28;20286;-65
2023/05/07 06:43:23;;;;;;;14.00;12.60;;;;;;;;;;5054987;28;20175;-66
2023/05/07 06:45:49;;;;;;;13.00;11.70;;;;;;;;;;5054987;28;20182;-66
2023/05/07 06:48:15;;;;;;;13.57;12.10;;;;;;;;;;5055220;28;20543;-65
2023/05/07 06:50:42;;;;;;;13.43;11.40;;;;;;;;;;5053851;28;20551;-65
2023/05/07 06:53:08;;;;;;;11.70;10.60;;;;;;;;;;5054414;28;20189;-65
2023/05/07 06:55:34;;;;;;;12.67;11.10;;;;;;;;;;5054714;28;20555;-65
2023/05/07 06:58:00;;;;;;;11.23;10.03;;;;;;;;;;5054546;28;20179;-66
2023/05/07 07:00:26;;;;;;;10.83;9.67;;;;;;;;;;5036552;28;20248;-65
2023/05/07 07:02:52;;;;;;;12.70;10.47;;;;;;;;;;5037034;28;20591;-65
2023/05/07 07:05:18;;;;;;;10.97;9.93;;;;;;;;;;5055026;28;20200;-66
2023/05/07 07:07:44;;;;;;;10.83;9.50;;;;;;;;;;5054537;28;20173;-66
2023/05/07 07:10:10;;;;;;;12.23;9.47;;;;;;;;;;5054560;28;20236;-66
2023/05/07 07:12:36;;;;;;;10.73;8.57;;;;;;;;;;5036500;28;20206;-66
2023/05/07 07:15:02;;;;;;;9.60;8.20;;;;;;;;;;5036292;28;20278;-66
2023/05/07 07:17:28;;;;;;;9.97;8.97;;;;;;;;;;5054275;28;20748;-66
2023/05/07 07:19:54;;;;;;;8.43;7.40;;;;;;;;;;5036776;28;20265;-66
2023/05/07 07:22:20;;;;;;;10.03;7.67;;;;;;;;;;5036458;28;20182;-66
2023/05/07 07:24:50;;;;;;;8.50;7.57;;;;;;;;;;5055573;28;20178;-66
2023/05/07 07:27:16;;;;;;;8.30;7.00;;;;;;;;;;5054363;28;20173;-67
2023/05/07 07:29:42;;;;;;;8.23;7.43;;;;;;;;;;5054990;28;20187;-66
2023/05/07 07:32:08;;;;;;;7.90;7.10;;;;;;;;;;5054035;28;20565;-67
2023/05/07 07:34:34;;;;;;;8.07;7.23;;;;;;;;;;5053856;28;20174;-66
2023/05/07 07:37:05;;;;;;;11.20;7.07;;;;;;;;;;5035854;28;20210;-67
2023/05/07 07:39:31;;;;;;;7.97;7.03;;;;;;;;;;5054241;28;20162;-66
2023/05/07 07:41:58;;;;;;;7.50;6.30;;;;;;;;;;5053504;28;20230;-67
2023/05/07 07:44:24;;;;;;;7.50;5.73;;;;;;;;;;5053873;28;20258;-68
2023/05/07 07:46:50;;;;;;;10.43;5.43;;;;;;;;;;5036001;28;20193;-66
2023/05/07 07:49:16;;;;;;;5.57;5.07;;;;;;;;;;5053792;28;20250;-67
2023/05/07 07:51:42;;;;;;;6.03;5.37;;;;;;;;;;5053557;28;20198;-66
2023/05/07 07:54:08;;;;;;;6.13;4.40;;;;;;;;;;5053439;28;20182;-66
2023/05/07 07:56:35;;;;;;;6.30;4.57;;;;;;;;;;5053435;28;20252;-66
2023/05/07 07:59:01;;;;;;;6.33;5.30;;;;;;;;;;5053669;28;20178;-66
2023/05/07 08:01:27;;;;;;;5.37;4.87;;;;;;;;;;5035426;28;20248;-67
2023/05/07 08:03:53;;;;;;;6.00;5.07;;;;;;;;;;5035547;28;20179;-68
2023/05/07 08:06:19;;;;;;;7.30;5.20;;;;;;;;;;5053478;28;20205;-66
2023/05/07 08:08:45;;;;;;;5.23;4.67;;;;;;;;;;5053150;28;20189;-67
2023/05/07 08:11:11;;;;;;;7.67;4.80;;;;;;;;;;5035208;28;20206;-66
2023/05/07 08:13:38;;;;;;;5.77;4.80;;;;;;;;;;5053388;28;20601;-66
2023/05/07 08:16:05;;;;;;;7.07;4.37;;;;;;;;;;5053581;28;20202;-69
2023/05/07 08:18:31;;;;;;;5.77;5.10;;;;;;;;;;5035432;28;20189;-67
2023/05/07 08:20:57;;;;;;;9.60;4.73;;;;;;;;;;5053057;28;20198;-67
2023/05/07 08:23:23;;;;;;;6.23;4.50;;;;;;;;;;5035321;28;20232;-67
2023/05/07 08:25:51;;;;;;;5.40;4.60;;;;;;;;;;5052948;28;20182;-66
2023/05/07 08:28:17;;;;;;;5.90;5.33;;;;;;;;;;5035098;28;20265;-66
2023/05/07 08:30:43;;;;;;;5.60;4.80;;;;;;;;;;5035104;28;20202;-64
2023/05/07 08:33:09;;;;;;;5.00;4.60;;;;;;;;;;5034937;28;20182;-65
2023/05/07 08:35:35;;;;;;;6.67;4.63;;;;;;;;;;5052958;28;20200;-65
2023/05/07 08:38:01;;;;;;;4.50;4.00;;;;;;;;;;5053144;28;20167;-65
2023/05/07 08:40:27;;;;;;;5.33;4.73;;;;;;;;;;5052545;28;20284;-66
2023/05/07 08:42:54;;;;;;;4.80;4.20;;;;;;;;;;5035008;28;20240;-66
2023/05/07 08:45:20;;;;;;;5.03;4.37;;;;;;;;;;5053034;28;20194;-66
2023/05/07 08:47:56;;;;;;;5.00;4.50;;;;;;;;;;5035357;28;20185;-66
2023/05/07 08:50:22;;;;;;;4.70;4.30;;;;;;;;;;5053215;28;20201;-66
2023/05/07 08:52:48;;;;;;;5.23;4.43;;;;;;;;;;5052889;28;20193;-66
2023/05/07 08:55:15;;;;;;;6.50;4.53;;;;;;;;;;5035015;28;20672;-66
2023/05/07 08:57:41;;;;;;;4.90;4.37;;;;;;;;;;5053315;28;20207;-65
2023/05/07 09:00:07;;;;;;;5.23;4.60;;;;;;;;;;5052612;28;20191;-65
2023/05/07 09:02:35;;;;;;;4.00;3.60;;;;;;;;;;5052783;28;20175;-65
2023/05/07 09:05:01;;;;;;;4.17;3.73;;;;;;;;;;5053143;28;20205;-66
2023/05/07 09:07:27;;;;;;;5.23;3.53;;;;;;;;;;5053336;28;20179;-66
2023/05/07 09:09:55;;;;;;;5.60;3.70;;;;;;;;;;5052934;28;20178;-65
2023/05/07 09:12:21;;;;;;;5.23;3.50;;;;;;;;;;5053329;28;20171;-66
2023/05/07 09:14:47;;;;;;;3.73;3.30;;;;;;;;;;5056726;28;20261;-66
2023/05/07 09:17:13;;;;;;;5.10;3.50;;;;;;;;;;5038988;28;20321;-66
2023/05/07 09:19:39;;;;;;;3.83;3.47;;;;;;;;;;5039970;28;20182;-66
2023/05/07 09:22:09;;;;;;;6.57;3.60;;;;;;;;;;5057013;28;20191;-66
2023/05/07 09:24:37;;;;;;;3.53;3.20;;;;;;;;;;5056814;28;20185;-66
2023/05/07 09:27:03;;;;;;;5.10;3.37;;;;;;;;;;5056733;28;20178;-67
2023/05/07 09:29:30;;;;;;;4.43;3.10;;;;;;;;;;5056593;28;20181;-67
2023/05/07 09:31:56;;;;;;;4.57;2.50;;;;;;;;;;5056700;28;20248;-66
2023/05/07 09:34:22;;;;;;;3.80;3.00;;;;;;;;;;5056757;28;20182;-67
2023/05/07 09:36:48;;;;;;;3.27;2.70;;;;;;;;;;5038456;28;20210;-66
2023/05/07 09:39:14;;;;;;;2.83;2.53;;;;;;;;;;5038595;28;20186;-66
2023/05/07 09:41:47;;;;;;;3.73;3.00;;;;;;;;;;5056286;28;20292;-66
2023/05/07 09:44:14;;;;;;;3.40;2.50;;;;;;;;;;5056596;28;20183;-66
2023/05/07 09:46:42;;;;;;;2.40;2.20;;;;;;;;;;5056501;28;20253;-65
2023/05/07 09:49:13;;;;;;;2.80;2.60;;;;;;;;;;5038528;28;20189;-65
2023/05/07 09:51:46;;;;;;;3.80;2.97;;;;;;;;;;5038679;28;20289;-65
2023/05/07 09:54:12;;;;;;;3.67;2.50;;;;;;;;;;5056413;28;20221;-65
2023/05/07 09:56:38;;;;;;;4.07;2.60;;;;;;;;;;5056167;28;20214;-65
2023/05/07 09:59:05;;;;;;;3.73;2.17;;;;;;;;;;5056354;28;20175;-65
2023/05/07 10:01:32;;;;;;;2.47;2.27;;;;;;;;;;5056211;28;20232;-64
2023/05/07 10:03:58;;;;;;;4.20;2.70;;;;;;;;;;5056130;28;20178;-67
2023/05/07 10:06:28;;;;;;;4.50;2.47;;;;;;;;;;5038691;28;20584;-67
2023/05/07 10:08:55;;;;;;;4.57;2.17;;;;;;;;;;5038256;28;20189;-67
2023/05/07 10:11:22;;;;;;;3.83;2.07;;;;;;;;;;5056286;28;20686;-66
2023/05/07 10:13:48;;;;;;;6.67;2.63;;;;;;;;;;5056359;28;20261;-66
2023/05/07 10:16:14;;;;;;;2.60;2.40;;;;;;;;;;5037792;28;20680;-66
2023/05/07 10:18:41;;;;;;;5.27;2.50;;;;;;;;;;5055894;28;20182;-65
2023/05/07 10:21:33;;;;;;;5.43;2.90;;;;;;;;;;5056396;28;20209;-64
2023/05/07 10:24:19;;;;;;;4.53;2.70;;;;;;;;;;5052743;28;20298;-66
2023/05/07 10:26:47;;;;;;;3.30;2.53;;;;;;;;;;5056275;28;20541;-65
2023/05/07 10:29:34;;;;;;;2.70;2.43;;;;;;;;;;5056747;28;20269;-65
2023/05/07 10:32:23;;;;;;;3.03;2.73;;;;;;;;;;5055833;28;20285;-66
2023/05/07 10:34:51;;;;;;;2.97;2.60;;;;;;;;;;5018582;28;20202;-67
2023/05/07 10:37:17;;;;;;;3.33;2.43;;;;;;;;;;5055175;28;20213;-66
2023/05/07 10:39:43;;;;;;;4.83;2.53;;;;;;;;;;5055527;28;20182;-66
2023/05/07 10:42:13;;;;;;;4.47;2.67;;;;;;;;;;5055188;28;20210;-67
2023/05/07 10:44:39;;;;;;;2.90;2.30;;;;;;;;;;5055217;28;20182;-66
2023/05/07 10:47:09;;;;;;;3.70;2.30;;;;;;;;;;5054328;28;20404;-67
2023/05/07 10:49:36;;;;;;;3.03;2.40;;;;;;;;;;5037690;28;20178;-67
2023/05/07 10:52:31;;;;;;;4.50;2.43;;;;;;;;;;5037304;28;20198;-67
2023/05/07 10:55:18;;;;;;;6.77;2.47;;;;;;;;;;5037990;28;20195;-68
2023/05/07 10:57:44;;;;;;;3.80;2.60;;;;;;;;;;5055087;28;20202;-66
2023/05/07 11:00:13;;;;;;;3.03;2.40;;;;;;;;;;5037273;28;20754;-66
2023/05/07 11:02:58;;;;;;;4.53;2.93;;;;;;;;;;5055627;28;20261;-66
2023/05/07 11:05:24;;;;;;;3.27;2.80;;;;;;;;;;5055392;28;20257;-66
2023/05/07 11:08:00;;;;;;;4.67;2.77;;;;;;;;;;5055178;28;20183;-66
2023/05/07 11:10:45;;;;;;;3.67;2.60;;;;;;;;;;5055086;28;20570;-66
2023/05/07 11:13:11;;;;;;;6.10;3.20;;;;;;;;;;5054636;28;20185;-66
2023/05/07 11:15:38;;;;;;;4.63;2.73;;;;;;;;;;5054590;28;20183;-65
2023/05/07 11:18:04;;;;;;;3.00;2.63;;;;;;;;;;5054876;28;20183;-66
2023/05/07 11:20:50;;;;;;;3.50;2.60;;;;;;;;;;5054168;28;20198;-65
2023/05/07 11:23:35;;;;;;;2.83;2.43;;;;;;;;;;5036890;28;20178;-67
2023/05/07 11:26:03;;;;;;;5.32;3.00;;;;;;;;;;5053644;28;20480;-66
2023/05/07 11:28:30;;;;;;;3.65;2.50;;;;;;;;;;5035394;28;20759;-66
2023/05/07 11:30:56;;;;;;;4.27;2.50;;;;;;;;;;5054583;28;20668;-67
2023/05/07 11:33:25;;;;;;;4.30;2.37;;;;;;;;;;5054109;28;20640;-66
2023/05/07 11:35:51;;;;;;;3.60;2.30;;;;;;;;;;5053746;28;20202;-67
2023/05/07 11:38:17;;;;;;;3.30;2.30;;;;;;;;;;5036139;28;20189;-67
2023/05/07 11:40:43;;;;;;;;;;;;;;;;;;5054271;28;20372;-67
2023/05/07 11:43:12;;;;;;;3.30;2.53;;;;;;;;;;5053926;28;20234;-67
2023/05/07 11:45:38;;;;;;;2.72;2.50;;;;;;;;;;5052475;28;20409;-67
2023/05/07 11:48:05;;;;;;;2.87;2.57;;;;;;;;;;5053496;28;20178;-67
2023/05/07 11:50:31;;;;;;;3.20;2.90;;;;;;;;;;5053670;28;20194;-68
2023/05/07 11:52:57;;;;;;;3.97;2.80;;;;;;;;;;5053830;28;20183;-67
2023/05/07 11:55:25;;;;;;;4.40;3.07;;;;;;;;;;5053990;28;20182;-67
2023/05/07 11:57:51;;;;;;;5.50;2.80;;;;;;;;;;5053427;28;20202;-66
2023/05/07 12:00:17;;;;;;;3.43;2.60;;;;;;;;;;5053347;28;20268;-66
2023/05/07 12:02:45;;;;;;;9.03;3.03;;;;;;;;;;5053497;28;20174;-67
2023/05/07 12:05:11;;;;;;;3.73;2.73;;;;;;;;;;5053614;28;20240;-67
2023/05/07 12:07:37;;;;;;;3.37;2.93;;;;;;;;;;5035451;28;20301;-67
2023/05/07 12:10:07;;;;;;;3.17;2.70;;;;;;;;;;5035331;28;20228;-67
2023/05/07 12:12:39;;;;;;;6.40;3.30;;;;;;;;;;5053753;28;20262;-67
2023/05/07 12:15:05;;;;;;;3.40;3.07;;;;;;;;;;5053685;28;20155;-67
2023/05/07 12:17:31;;;;;;;6.40;3.00;;;;;;;;;;5035496;28;20256;-67
2023/05/07 12:19:57;;;;;;;3.17;2.87;;;;;;;;;;5053366;28;20178;-67
2023/05/07 12:22:23;;;;;;;6.23;3.30;;;;;;;;;;5035683;28;20598;-65
2023/05/07 12:24:56;;;;;;;4.13;3.20;;;;;;;;;;5053657;28;20170;-65
2023/05/07 12:27:23;;;;;;;4.23;3.00;;;;;;;;;;5053424;28;20171;-64
2023/05/07 12:29:49;;;;;;;5.17;2.73;;;;;;;;;;5053393;28;20178;-66
2023/05/07 12:32:16;;;;;;;4.13;3.10;;;;;;;;;;5053310;28;20178;-66
2023/05/07 12:34:42;;;;;;;3.23;2.87;;;;;;;;;;5053829;28;20204;-66
2023/05/07 12:37:08;;;;;;;4.73;3.10;;;;;;;;;;5053597;28;20217;-66
2023/05/07 12:39:34;;;;;;;4.33;2.90;;;;;;;;;;5053949;28;20232;-67
2023/05/07 12:42:00;;;;;;;3.30;2.90;;;;;;;;;;5035184;28;20217;-67
2023/05/07 12:44:30;;;;;;;3.20;2.90;;;;;;;;;;5053289;28;20185;-66
2023/05/07 12:46:56;;;;;;;2.80;2.60;;;;;;;;;;5053500;28;20178;-67
2023/05/07 12:49:23;;;;;;;3.93;2.97;;;;;;;;;;5056231;28;20174;-65
2023/05/07 12:51:49;;;;;;;3.63;3.13;;;;;;;;;;5057533;28;20252;-68
2023/05/07 12:54:31;;;;;;;5.23;2.63;;;;;;;;;;5057987;28;20244;-67
2023/05/07 12:57:01;;;;;;;5.33;2.97;;;;;;;;;;5057551;28;20216;-67
2023/05/07 12:59:42;;;;;;;3.33;3.03;;;;;;;;;;5057705;28;20699;-67
2023/05/07 13:02:09;;;;;;;3.97;3.00;;;;;;;;;;5057200;28;20202;-67
2023/05/07 13:04:35;;;;;;;4.83;3.40;;;;;;;;;;5056962;28;20206;-66
2023/05/07 13:07:02;;;;;;;4.43;3.10;;;;;;;;;;5056981;28;20175;-67
2023/05/07 13:09:31;;;;;;;3.57;2.90;;;;;;;;;;5039054;28;20229;-67
2023/05/07 13:11:59;;;;;;;4.50;2.53;;;;;;;;;;5056580;28;20205;-67
2023/05/07 13:14:25;;;;;;;3.77;2.63;;;;;;;;;;5038936;28;20656;-67
2023/05/07 13:16:51;;;;;;;5.40;3.00;;;;;;;;;;5056693;28;20213;-67
2023/05/07 13:19:17;;;;;;;3.47;2.83;;;;;;;;;;5038886;28;20670;-66
2023/05/07 13:21:43;;;;;;;9.27;4.13;;;;;;;;;;5057118;28;20749;-67
2023/05/07 13:24:09;;;;;;;6.83;5.20;;;;;;;;;;5039258;28;20522;-66
2023/05/07 13:26:35;;;;;;;10.87;4.80;;;;;;;;;;5038809;28;20178;-66
2023/05/07 13:29:01;;;;;;;10.17;4.63;;;;;;;;;;5056635;28;20205;-65
2023/05/07 13:31:27;;;;;;;7.33;4.17;;;;;;;;;;5056466;28;20294;-66
2023/05/07 13:33:53;;;;;;;9.97;4.50;;;;;;;;;;5056602;28;20590;-64
2023/05/07 13:36:19;;;;;;;9.77;4.07;;;;;;;;;;5056187;28;20733;-64
2023/05/07 13:38:46;;;;;;;5.63;3.53;;;;;;;;;;5056181;28;20179;-65
2023/05/07 13:41:13;;;;;;;6.47;3.00;;;;;;;;;;5057521;28;20236;-66
2023/05/07 13:43:38;;;;;;;5.27;3.40;;;;;;;;;;5057100;28;20178;-66
2023/05/07 13:46:04;;;;;;;5.17;3.50;;;;;;;;;;5056540;28;20212;-66
2023/05/07 13:48:30;;;;;;;4.00;3.23;;;;;;;;;;5038585;28;20182;-64
2023/05/07 13:50:57;;;;;;;3.97;3.57;;;;;;;;;;5056093;28;20269;-66
2023/05/07 13:53:32;;;;;;;7.03;4.03;;;;;;;;;;5039270;28;20175;-67
2023/05/07 13:55:58;;;;;;;4.43;4.03;;;;;;;;;;5056000;28;20281;-65
2023/05/07 13:58:24;;;;;;;4.77;4.30;;;;;;;;;;5056179;28;20175;-65
2023/05/07 14:00:50;;;;;;;6.70;4.37;;;;;;;;;;5055612;28;20194;-64
2023/05/07 14:03:17;;;;;;;4.60;3.93;;;;;;;;;;5055448;28;20185;-65
2023/05/07 14:05:43;;;;;;;6.03;4.50;;;;;;;;;;5037585;28;20185;-65
2023/05/07 14:08:10;;;;;;;5.80;4.00;;;;;;;;;;5037518;28;20187;-65
2023/05/07 14:10:36;;;;;;;6.93;4.40;;;;;;;;;;5055336;28;20187;-65
2023/05/07 14:13:02;;;;;;;5.23;4.50;;;;;;;;;;5037348;28;20232;-65
2023/05/07 14:15:28;;;;;;;5.10;4.23;;;;;;;;;;5055117;28;20178;-65
2023/05/07 14:17:54;;;;;;;5.23;4.73;;;;;;;;;;5055602;28;20599;-65
2023/05/07 14:20:21;;;;;;;5.67;4.70;;;;;;;;;;5037296;28;20234;-65
2023/05/07 14:22:47;;;;;;;5.63;5.03;;;;;;;;;;5055104;28;20257;-64
2023/05/07 14:25:13;;;;;;;6.63;4.83;;;;;;;;;;5054956;28;20206;-64
2023/05/07 14:27:39;;;;;;;8.53;4.60;;;;;;;;;;5054944;28;20178;-64
2023/05/07 14:30:05;;;;;;;6.27;4.40;;;;;;;;;;5037275;28;20186;-65